Terminal Aerodrome Forecast
Issued by NWS

Current Version | Previous Version | Text Only | Print | Product List | Glossary On
Versions: 1 2 3 4 5 6 7 8 9 10 11 12 13 14 15 16 17 18 19 20 21 22 23 24 25 26 27 28 29 30 31 32 33 34 35 36 37 38 39 40 41 42 43 44 45 46
000 FTUS41 KBOX 032114 AAA TAFACK TAF AMD KACK 032114Z 0321/0418 14008KT P6SM SKC FM040000 16005KT P6SM FEW250 FM041400 10009KT P6SM OVC100 FM041600 09013KT P6SM OVC050=

USA.gov is the U.S. government's official web portal to all federal, state and local government web resources and services.